Time;durP1;ratioP1;P1;durP2;ratioP2;P2;SDS_P1;SDS_P2;PMS_P1;PMS_P2;Temp;Humidity;BMP_temperature;BMP_pressure;BME280_temperature;BME280_humidity;BME280_pressure;Samples;Min_cycle;Max_cycle;Signal;HPM_P1;HPM_P2
2023/02/10 00:01:44;;;;;;;0.00;0.00;;;;;;;;;;5097206;28;20119;-63
2023/02/10 00:04:12;;;;;;;1.75;0.15;;;;;;;;;;5097062;28;20047;-61
2023/02/10 00:06:37;;;;;;;0.40;0.00;;;;;;;;;;5097520;28;20020;-60
2023/02/10 00:09:03;;;;;;;0.30;0.10;;;;;;;;;;5097787;28;20016;-59
2023/02/10 00:14:13;;;;;;;2.30;0.10;;;;;;;;;;5116012;28;20441;-60
2023/02/10 00:16:39;;;;;;;1.75;0.00;;;;;;;;;;5097771;28;20022;-60
2023/02/10 00:19:05;;;;;;;2.00;0.03;;;;;;;;;;5097469;28;20408;-60
2023/02/10 00:21:30;;;;;;;0.20;0.00;;;;;;;;;;5097829;28;20388;-59
2023/02/10 00:23:56;;;;;;;0.63;0.10;;;;;;;;;;5116053;28;20485;-64
2023/02/10 00:26:22;;;;;;;0.47;0.00;;;;;;;;;;5098759;28;20586;-58
2023/02/10 00:28:47;;;;;;;0.00;0.00;;;;;;;;;;5099516;28;20023;-59
2023/02/10 00:31:13;;;;;;;0.80;0.00;;;;;;;;;;5099131;28;20468;-59
2023/02/10 00:33:39;;;;;;;0.30;0.10;;;;;;;;;;5116886;28;20075;-58
2023/02/10 00:36:06;;;;;;;0.43;0.00;;;;;;;;;;5116608;28;20072;-59
2023/02/10 00:38:32;;;;;;;0.32;0.00;;;;;;;;;;5098342;28;20020;-59
2023/02/10 00:41:08;;;;;;;0.20;0.00;;;;;;;;;;5115508;28;20027;-58
2023/02/10 00:43:34;;;;;;;0.57;0.10;;;;;;;;;;5097044;28;20046;-59
2023/02/10 00:45:59;;;;;;;1.60;0.10;;;;;;;;;;5115200;28;20087;-60
2023/02/10 00:48:25;;;;;;;0.32;0.00;;;;;;;;;;5097063;28;20053;-60
2023/02/10 00:50:50;;;;;;;0.88;0.00;;;;;;;;;;5097895;28;20023;-60
2023/02/10 00:53:16;;;;;;;1.30;0.20;;;;;;;;;;5097010;28;20015;-59
2023/02/10 00:55:41;;;;;;;0.80;0.10;;;;;;;;;;5115567;28;20011;-58
2023/02/10 00:58:08;;;;;;;0.00;0.00;;;;;;;;;;5096752;28;20491;-60
2023/02/10 01:00:33;;;;;;;0.00;0.00;;;;;;;;;;5096363;28;20023;-57
2023/02/10 01:02:59;;;;;;;1.40;0.00;;;;;;;;;;5095826;28;20055;-58
2023/02/10 01:05:24;;;;;;;0.60;0.10;;;;;;;;;;5096260;28;20517;-58
2023/02/10 01:07:52;;;;;;;0.22;0.08;;;;;;;;;;5095744;28;20511;-59
2023/02/10 01:10:17;;;;;;;0.90;0.22;;;;;;;;;;5113738;28;20027;-59
2023/02/10 01:12:43;;;;;;;0.50;0.00;;;;;;;;;;5095734;28;20476;-59
2023/02/10 01:15:08;;;;;;;0.17;0.00;;;;;;;;;;5114248;28;20403;-62
2023/02/10 01:17:34;;;;;;;2.17;0.28;;;;;;;;;;5114848;28;20095;-60
2023/02/10 01:19:59;;;;;;;0.85;0.22;;;;;;;;;;5097212;28;20382;-59
2023/02/10 01:22:24;;;;;;;1.67;0.08;;;;;;;;;;5114503;28;20463;-60
2023/02/10 01:24:50;;;;;;;0.70;0.52;;;;;;;;;;5114193;28;20020;-59
2023/02/10 01:27:15;;;;;;;2.30;0.35;;;;;;;;;;5113527;28;20411;-59
2023/02/10 01:29:41;;;;;;;0.40;0.28;;;;;;;;;;5114473;28;20020;-58
2023/02/10 01:32:06;;;;;;;3.40;0.55;;;;;;;;;;5113966;28;20052;-60
2023/02/10 01:34:32;;;;;;;0.20;0.00;;;;;;;;;;5113948;28;20137;-59
2023/02/10 01:36:57;;;;;;;8.18;0.63;;;;;;;;;;5113385;28;20102;-59
2023/02/10 01:39:22;;;;;;;0.10;0.00;;;;;;;;;;5095345;28;20015;-60
2023/02/10 01:41:48;;;;;;;3.85;0.08;;;;;;;;;;5095318;28;20016;-60
2023/02/10 01:44:19;;;;;;;0.70;0.10;;;;;;;;;;5115332;28;20031;-59
2023/02/10 01:46:45;;;;;;;4.05;1.48;;;;;;;;;;5116289;28;20023;-59
2023/02/10 01:49:12;;;;;;;2.40;0.10;;;;;;;;;;5096703;28;20068;-60
2023/02/10 01:51:41;;;;;;;0.52;0.00;;;;;;;;;;5114028;28;20024;-59
2023/02/10 01:54:07;;;;;;;0.05;0.00;;;;;;;;;;5095377;28;20023;-59
2023/02/10 01:56:33;;;;;;;0.20;0.10;;;;;;;;;;5095528;28;20078;-60
2023/02/10 01:58:58;;;;;;;1.20;0.30;;;;;;;;;;5095218;28;20464;-59
2023/02/10 02:01:24;;;;;;;1.23;0.15;;;;;;;;;;5095579;28;20490;-60
2023/02/10 02:03:51;;;;;;;3.30;0.10;;;;;;;;;;5113379;28;20047;-60
2023/02/10 02:06:16;;;;;;;0.17;0.00;;;;;;;;;;5097158;28;20456;-60
2023/02/10 02:08:42;;;;;;;3.10;0.00;;;;;;;;;;5113936;28;20154;-60
2023/02/10 02:11:17;;;;;;;2.33;0.20;;;;;;;;;;5096002;28;20019;-59
2023/02/10 02:14:01;;;;;;;0.68;0.15;;;;;;;;;;5095841;28;20024;-60
2023/02/10 02:16:26;;;;;;;1.95;0.05;;;;;;;;;;5113788;28;20088;-60
2023/02/10 02:18:57;;;;;;;0.68;0.05;;;;;;;;;;5095116;28;20015;-58
2023/02/10 02:21:31;;;;;;;0.73;0.00;;;;;;;;;;5113241;28;20401;-58
2023/02/10 02:23:56;;;;;;;2.58;0.47;;;;;;;;;;5095280;28;20073;-60
2023/02/10 02:26:28;;;;;;;0.10;0.10;;;;;;;;;;5095268;28;20032;-58
2023/02/10 02:28:57;;;;;;;0.63;0.25;;;;;;;;;;5095425;28;20084;-59
2023/02/10 02:31:41;;;;;;;0.50;0.00;;;;;;;;;;5095193;28;20491;-58
2023/02/10 02:34:10;;;;;;;1.65;0.30;;;;;;;;;;5095017;28;20118;-58
2023/02/10 02:36:46;;;;;;;2.00;0.10;;;;;;;;;;5094938;28;20047;-59
2023/02/10 02:39:12;;;;;;;2.38;0.10;;;;;;;;;;5095692;28;20035;-58
2023/02/10 02:41:37;;;;;;;0.10;0.00;;;;;;;;;;5115367;28;20015;-70
2023/02/10 02:44:04;;;;;;;0.32;0.10;;;;;;;;;;5116041;28;20024;-58
2023/02/10 02:46:39;;;;;;;1.77;0.08;;;;;;;;;;5097954;28;20020;-59
2023/02/10 02:49:07;;;;;;;3.40;0.40;;;;;;;;;;5114235;28;20051;-62
2023/02/10 02:51:40;;;;;;;1.20;0.47;;;;;;;;;;5113194;28;20027;-63
2023/02/10 02:54:15;;;;;;;0.75;0.03;;;;;;;;;;5113697;28;20019;-60
2023/02/10 02:56:51;;;;;;;1.98;0.10;;;;;;;;;;5114836;28;20031;-59
2023/02/10 02:59:17;;;;;;;1.80;0.10;;;;;;;;;;5114694;28;20031;-61
2023/02/10 03:01:45;;;;;;;2.00;0.00;;;;;;;;;;5113171;28;20016;-60
2023/02/10 03:04:12;;;;;;;0.90;0.00;;;;;;;;;;5112959;28;20085;-62
2023/02/10 03:06:37;;;;;;;0.00;0.00;;;;;;;;;;5094674;28;20020;-59
2023/02/10 03:09:03;;;;;;;2.65;0.17;;;;;;;;;;5112773;28;20034;-59
2023/02/10 03:11:28;;;;;;;0.20;0.00;;;;;;;;;;5115778;28;20019;-59
2023/02/10 03:13:54;;;;;;;3.42;0.25;;;;;;;;;;5119778;28;20019;-61
2023/02/10 03:16:19;;;;;;;2.90;0.20;;;;;;;;;;5098671;28;20027;-60
2023/02/10 03:18:45;;;;;;;1.83;0.10;;;;;;;;;;5098464;28;20425;-60
2023/02/10 03:21:10;;;;;;;1.65;0.10;;;;;;;;;;5097969;28;20471;-64
2023/02/10 03:23:35;;;;;;;4.20;0.13;;;;;;;;;;5116214;28;20023;-59
2023/02/10 03:26:01;;;;;;;3.63;0.10;;;;;;;;;;5098035;28;20016;-59
2023/02/10 03:28:27;;;;;;;5.93;0.10;;;;;;;;;;5097981;28;20016;-57
2023/02/10 03:30:53;;;;;;;1.77;0.10;;;;;;;;;;5098344;28;20023;-59
2023/02/10 03:33:19;;;;;;;3.15;0.10;;;;;;;;;;5116001;28;20376;-59
2023/02/10 03:35:45;;;;;;;1.27;0.03;;;;;;;;;;5097995;28;20019;-60
2023/02/10 03:38:11;;;;;;;5.47;0.20;;;;;;;;;;5097651;28;20023;-60
2023/02/10 03:40:36;;;;;;;0.80;0.52;;;;;;;;;;5097879;28;20016;-60
2023/02/10 03:43:02;;;;;;;2.30;0.25;;;;;;;;;;5115947;28;20059;-57
2023/02/10 03:45:27;;;;;;;1.55;0.10;;;;;;;;;;5097918;28;20027;-58
2023/02/10 03:47:54;;;;;;;3.00;0.13;;;;;;;;;;5116150;28;20460;-58
2023/02/10 03:50:20;;;;;;;8.30;1.40;;;;;;;;;;5115957;28;20022;-60
2023/02/10 03:52:45;;;;;;;4.63;0.17;;;;;;;;;;5097751;28;20110;-58
2023/02/10 03:55:14;;;;;;;2.65;0.30;;;;;;;;;;5117080;28;20023;-63
2023/02/10 03:57:40;;;;;;;4.10;0.40;;;;;;;;;;5118215;28;20020;-60
2023/02/10 04:00:06;;;;;;;1.13;0.13;;;;;;;;;;5118200;28;20349;-58
2023/02/10 04:02:31;;;;;;;5.57;0.60;;;;;;;;;;5098089;28;20051;-59
2023/02/10 04:04:56;;;;;;;1.40;0.10;;;;;;;;;;5097380;28;20016;-60
2023/02/10 04:07:22;;;;;;;5.72;0.03;;;;;;;;;;5097091;28;20024;-64
2023/02/10 04:09:47;;;;;;;3.20;0.30;;;;;;;;;;5115459;28;20079;-58
2023/02/10 04:12:13;;;;;;;5.78;0.52;;;;;;;;;;5097708;28;20016;-61
2023/02/10 04:14:38;;;;;;;1.25;0.10;;;;;;;;;;5116239;28;20421;-59
2023/02/10 04:17:04;;;;;;;2.40;0.10;;;;;;;;;;5098047;28;20034;-58
2023/02/10 04:19:30;;;;;;;5.10;0.10;;;;;;;;;;5097614;28;20012;-59
2023/02/10 04:21:55;;;;;;;9.90;0.40;;;;;;;;;;5115850;28;20102;-58
2023/02/10 04:24:22;;;;;;;5.22;0.10;;;;;;;;;;5097764;28;20396;-58
2023/02/10 04:26:47;;;;;;;5.32;0.55;;;;;;;;;;5115465;28;20502;-58
2023/02/10 04:29:12;;;;;;;1.08;0.10;;;;;;;;;;5114685;28;20098;-59
2023/02/10 04:31:38;;;;;;;3.10;0.25;;;;;;;;;;5096911;28;20020;-58
2023/02/10 04:34:04;;;;;;;0.50;0.30;;;;;;;;;;5097135;28;20027;-59
2023/02/10 04:36:29;;;;;;;6.07;0.25;;;;;;;;;;5115243;28;20054;-57
2023/02/10 04:38:55;;;;;;;1.25;0.10;;;;;;;;;;5097005;28;20024;-60
2023/02/10 04:41:20;;;;;;;5.20;0.20;;;;;;;;;;5115108;28;20037;-60
2023/02/10 04:43:46;;;;;;;3.95;0.17;;;;;;;;;;5115168;28;20023;-59
2023/02/10 04:46:11;;;;;;;5.95;0.30;;;;;;;;;;5114843;28;20012;-60
2023/02/10 04:48:37;;;;;;;23.45;0.80;;;;;;;;;;5114938;28;20022;-62
2023/02/10 04:51:09;;;;;;;6.95;1.10;;;;;;;;;;5116297;28;20047;-65
2023/02/10 04:53:35;;;;;;;20.60;0.52;;;;;;;;;;5097251;28;20047;-60
2023/02/10 04:56:02;;;;;;;0.30;0.00;;;;;;;;;;5096571;28;20030;-59
2023/02/10 04:58:28;;;;;;;1.30;0.47;;;;;;;;;;5114958;28;20020;-61
2023/02/10 05:00:54;;;;;;;1.25;0.08;;;;;;;;;;5115129;28;20035;-63
2023/02/10 05:03:19;;;;;;;1.85;0.20;;;;;;;;;;5117278;28;20491;-61
2023/02/10 05:05:45;;;;;;;9.77;1.17;;;;;;;;;;5117540;28;20022;-59
2023/02/10 05:08:10;;;;;;;3.80;0.60;;;;;;;;;;5115985;28;20024;-60
2023/02/10 05:10:36;;;;;;;6.72;0.73;;;;;;;;;;5096458;28;20059;-64
2023/02/10 05:13:01;;;;;;;19.50;1.55;;;;;;;;;;5114463;28;20019;-60
2023/02/10 05:15:27;;;;;;;10.13;1.05;;;;;;;;;;5095780;28;20024;-60
2023/02/10 05:17:52;;;;;;;4.05;0.22;;;;;;;;;;5114065;28;20012;-58
2023/02/10 05:20:18;;;;;;;12.18;1.05;;;;;;;;;;5114209;28;20035;-62
2023/02/10 05:22:43;;;;;;;4.32;0.30;;;;;;;;;;5113781;28;20012;-59
2023/02/10 05:25:09;;;;;;;4.35;0.20;;;;;;;;;;5095468;28;20019;-58
2023/02/10 05:27:35;;;;;;;7.20;0.40;;;;;;;;;;5095784;28;20034;-59
2023/02/10 05:30:00;;;;;;;2.47;0.28;;;;;;;;;;5114019;28;20062;-60
2023/02/10 05:32:26;;;;;;;13.35;1.13;;;;;;;;;;5095454;28;20043;-59
2023/02/10 05:34:51;;;;;;;9.80;0.77;;;;;;;;;;5113820;28;20012;-58
2023/02/10 05:37:17;;;;;;;10.85;1.08;;;;;;;;;;5113635;28;20051;-61
2023/02/10 05:39:42;;;;;;;12.48;2.05;;;;;;;;;;5114214;28;20081;-59
2023/02/10 05:42:08;;;;;;;3.80;0.63;;;;;;;;;;5095495;28;20026;-59
2023/02/10 05:44:33;;;;;;;8.95;0.95;;;;;;;;;;5113762;28;20533;-60
2023/02/10 05:47:00;;;;;;;5.05;0.40;;;;;;;;;;5095945;28;20110;-59
2023/02/10 05:49:25;;;;;;;8.75;1.05;;;;;;;;;;5114368;28;20064;-59
2023/02/10 05:51:51;;;;;;;0.50;0.20;;;;;;;;;;5114861;28;20012;-60
2023/02/10 05:54:17;;;;;;;3.00;0.43;;;;;;;;;;5113963;28;20015;-60
2023/02/10 05:56:43;;;;;;;15.70;0.50;;;;;;;;;;5114311;28;20058;-59
2023/02/10 05:59:11;;;;;;;16.67;1.48;;;;;;;;;;5096160;28;20016;-60
2023/02/10 06:01:36;;;;;;;43.15;3.75;;;;;;;;;;5114757;28;20016;-59
2023/02/10 06:04:02;;;;;;;3.30;0.40;;;;;;;;;;5112840;28;20054;-61
2023/02/10 06:06:27;;;;;;;4.75;0.30;;;;;;;;;;5095607;28;20027;-60
2023/02/10 06:08:53;;;;;;;6.88;1.10;;;;;;;;;;5113711;28;20016;-60
2023/02/10 06:11:18;;;;;;;8.70;0.95;;;;;;;;;;5095429;28;20015;-58
2023/02/10 06:13:44;;;;;;;12.30;1.08;;;;;;;;;;5096645;28;20042;-66
2023/02/10 06:16:11;;;;;;;5.47;0.30;;;;;;;;;;5115280;28;20047;-60
2023/02/10 06:18:36;;;;;;;28.52;2.92;;;;;;;;;;5112847;28;20016;-60
2023/02/10 06:21:02;;;;;;;10.65;1.27;;;;;;;;;;5094502;28;20023;-62
2023/02/10 06:23:28;;;;;;;10.85;0.95;;;;;;;;;;5095170;28;20578;-59
2023/02/10 06:25:54;;;;;;;15.88;1.15;;;;;;;;;;5112889;28;20015;-59
2023/02/10 06:28:26;;;;;;;6.80;0.70;;;;;;;;;;5112681;28;20020;-60
2023/02/10 06:30:52;;;;;;;22.00;0.88;;;;;;;;;;5094738;28;20031;-59
2023/02/10 06:33:17;;;;;;;7.38;0.40;;;;;;;;;;5112556;28;20035;-60
2023/02/10 06:35:43;;;;;;;10.35;0.47;;;;;;;;;;5112688;28;20019;-62
2023/02/10 06:38:09;;;;;;;3.13;0.20;;;;;;;;;;5094422;28;20012;-60
2023/02/10 06:40:34;;;;;;;21.13;2.35;;;;;;;;;;5112415;28;20388;-60
2023/02/10 06:43:01;;;;;;;19.20;2.10;;;;;;;;;;5094629;28;20036;-62
2023/02/10 06:45:28;;;;;;;20.23;1.10;;;;;;;;;;5113883;28;20008;-60
2023/02/10 06:47:53;;;;;;;21.00;1.17;;;;;;;;;;5098524;28;20046;-61
2023/02/10 06:50:19;;;;;;;14.65;1.02;;;;;;;;;;5116533;28;20460;-67
2023/02/10 06:52:45;;;;;;;59.95;5.43;;;;;;;;;;5097769;28;20023;-61
2023/02/10 06:55:11;;;;;;;17.17;0.82;;;;;;;;;;5097897;28;20410;-61
2023/02/10 06:57:36;;;;;;;38.17;3.42;;;;;;;;;;5116739;28;20065;-59
2023/02/10 07:00:03;;;;;;;7.75;0.63;;;;;;;;;;5117268;28;20019;-64
2023/02/10 07:02:29;;;;;;;14.73;1.10;;;;;;;;;;5097934;28;20065;-62
2023/02/10 07:04:54;;;;;;;14.55;0.68;;;;;;;;;;5117580;28;20051;-63
2023/02/10 07:07:20;;;;;;;6.90;0.95;;;;;;;;;;5117808;28;20422;-64
2023/02/10 07:09:45;;;;;;;18.20;0.75;;;;;;;;;;5099258;28;20422;-66
2023/02/10 07:12:11;;;;;;;15.40;1.17;;;;;;;;;;5098764;28;20016;-60
2023/02/10 07:14:38;;;;;;;17.40;3.17;;;;;;;;;;5098212;28;20068;-61
2023/02/10 07:17:03;;;;;;;8.43;0.85;;;;;;;;;;5116427;28;20448;-61
2023/02/10 07:19:30;;;;;;;16.92;1.23;;;;;;;;;;5115632;28;20024;-61
2023/02/10 07:21:56;;;;;;;18.02;1.27;;;;;;;;;;5116923;28;20019;-60
2023/02/10 07:24:21;;;;;;;46.08;5.55;;;;;;;;;;5098226;28;20038;-60
2023/02/10 07:26:47;;;;;;;19.42;1.65;;;;;;;;;;5098736;28;20019;-60
2023/02/10 07:29:12;;;;;;;25.80;1.67;;;;;;;;;;5117786;28;20065;-68
2023/02/10 07:31:38;;;;;;;20.63;1.80;;;;;;;;;;5098956;28;20031;-63
2023/02/10 07:34:03;;;;;;;11.70;1.55;;;;;;;;;;5099179;28;20380;-60
2023/02/10 07:36:29;;;;;;;11.88;1.55;;;;;;;;;;5098618;28;20062;-61
2023/02/10 07:38:54;;;;;;;13.40;1.13;;;;;;;;;;5115945;28;20012;-62
2023/02/10 07:41:20;;;;;;;6.95;0.80;;;;;;;;;;5097423;28;20107;-60
2023/02/10 07:43:45;;;;;;;21.58;1.38;;;;;;;;;;5117407;28;20030;-60
2023/02/10 07:46:11;;;;;;;16.67;1.23;;;;;;;;;;5116617;28;20020;-61
2023/02/10 07:48:36;;;;;;;14.82;1.17;;;;;;;;;;5099217;28;20026;-60
2023/02/10 07:51:02;;;;;;;9.25;1.20;;;;;;;;;;5097986;28;20016;-60
2023/02/10 07:53:27;;;;;;;14.05;1.33;;;;;;;;;;5097554;28;20022;-60
2023/02/10 07:55:52;;;;;;;7.95;0.70;;;;;;;;;;5115491;28;20059;-60
2023/02/10 07:58:18;;;;;;;17.55;1.35;;;;;;;;;;5097024;28;20051;-60
2023/02/10 08:00:43;;;;;;;23.92;1.75;;;;;;;;;;5097133;28;20027;-59
2023/02/10 08:03:13;;;;;;;2.88;0.40;;;;;;;;;;5087635;28;20127;-61
2023/02/10 08:05:38;;;;;;;14.13;0.63;;;;;;;;;;5073205;28;20358;-65
2023/02/10 08:08:04;;;;;;;4.25;0.63;;;;;;;;;;5073322;28;20077;-61
2023/02/10 08:10:29;;;;;;;14.68;0.70;;;;;;;;;;5073189;28;20013;-61
2023/02/10 08:12:55;;;;;;;10.18;1.45;;;;;;;;;;5073010;28;20020;-60
2023/02/10 08:15:22;;;;;;;3.80;0.50;;;;;;;;;;5073538;28;20012;-63
2023/02/10 08:17:48;;;;;;;27.35;3.28;;;;;;;;;;5073237;28;20032;-60
2023/02/10 08:20:13;;;;;;;12.73;0.90;;;;;;;;;;5074731;28;20013;-60
2023/02/10 08:22:39;;;;;;;14.68;1.50;;;;;;;;;;5073925;28;20021;-61
2023/02/10 08:25:05;;;;;;;9.45;1.35;;;;;;;;;;5075902;28;20013;-63
2023/02/10 08:27:31;;;;;;;7.32;0.63;;;;;;;;;;5075794;28;20016;-59
2023/02/10 08:29:56;;;;;;;13.13;0.73;;;;;;;;;;5074588;28;20013;-59
2023/02/10 08:32:22;;;;;;;6.22;0.90;;;;;;;;;;5072802;28;20024;-62
2023/02/10 08:34:49;;;;;;;27.50;1.88;;;;;;;;;;5073324;28;20020;-59
2023/02/10 08:37:15;;;;;;;7.18;0.38;;;;;;;;;;5073016;28;20036;-59
2023/02/10 08:39:43;;;;;;;10.30;0.47;;;;;;;;;;5072647;28;20473;-60
2023/02/10 08:42:08;;;;;;;11.50;0.88;;;;;;;;;;5073632;28;20033;-60
2023/02/10 08:44:34;;;;;;;10.40;1.02;;;;;;;;;;5074056;28;20025;-60
2023/02/10 08:46:59;;;;;;;3.67;0.85;;;;;;;;;;5072299;28;20021;-60
2023/02/10 08:49:25;;;;;;;29.48;2.72;;;;;;;;;;5072409;28;20377;-59
2023/02/10 08:51:51;;;;;;;9.35;0.75;;;;;;;;;;5073543;28;20468;-61
2023/02/10 08:54:16;;;;;;;8.85;0.70;;;;;;;;;;5073893;28;20016;-62
2023/02/10 08:56:42;;;;;;;14.88;1.67;;;;;;;;;;5072291;28;20024;-61
2023/02/10 08:59:07;;;;;;;28.08;2.00;;;;;;;;;;5071680;28;20021;-64
2023/02/10 09:01:33;;;;;;;5.43;0.75;;;;;;;;;;5073879;28;20024;-61
2023/02/10 09:03:58;;;;;;;9.82;1.27;;;;;;;;;;5097093;28;20435;-61
2023/02/10 09:06:30;;;;;;;10.93;1.10;;;;;;;;;;5096549;28;20016;-60
2023/02/10 09:08:55;;;;;;;6.43;0.80;;;;;;;;;;5095927;28;20020;-60
2023/02/10 09:11:23;;;;;;;74.22;3.83;;;;;;;;;;5096337;28;20015;-62
2023/02/10 09:13:52;;;;;;;19.17;1.27;;;;;;;;;;5095901;28;20028;-60
2023/02/10 09:16:17;;;;;;;18.73;0.95;;;;;;;;;;5048763;22;20053;-59
2023/02/10 09:18:45;;;;;;;17.10;2.75;;;;;;;;;;5035772;28;20201;-59
2023/02/10 09:21:10;;;;;;;6.03;0.55;;;;;;;;;;5034650;28;20017;-61
2023/02/10 09:23:36;;;;;;;15.00;1.40;;;;;;;;;;5032345;28;20079;-60
2023/02/10 09:26:02;;;;;;;5.35;0.73;;;;;;;;;;5033680;28;20083;-61
2023/02/10 09:28:27;;;;;;;18.85;0.80;;;;;;;;;;5032975;28;20362;-62
2023/02/10 09:30:53;;;;;;;13.85;2.15;;;;;;;;;;5031965;28;20487;-59
2023/02/10 09:33:19;;;;;;;17.83;2.78;;;;;;;;;;5032073;28;20604;-61
2023/02/10 09:35:44;;;;;;;8.40;1.02;;;;;;;;;;5031719;28;20393;-59
2023/02/10 09:38:11;;;;;;;12.07;1.05;;;;;;;;;;5031493;28;20022;-60
2023/02/10 09:40:57;;;;;;;6.57;0.57;;;;;;;;;;5033319;28;20067;-59
2023/02/10 09:43:31;;;;;;;6.68;0.68;;;;;;;;;;5021434;28;20492;-60
2023/02/10 09:46:02;;;;;;;5.20;0.40;;;;;;;;;;5034280;28;20021;-63
2023/02/10 09:48:27;;;;;;;7.68;1.17;;;;;;;;;;5034997;28;20033;-61
2023/02/10 09:50:59;;;;;;;13.82;0.75;;;;;;;;;;5035462;28;20022;-59
2023/02/10 09:53:27;;;;;;;23.38;1.65;;;;;;;;;;5033512;28;20026;-59
2023/02/10 09:56:03;;;;;;;4.05;0.77;;;;;;;;;;5032844;28;20017;-60
2023/02/10 09:58:32;;;;;;;7.53;0.88;;;;;;;;;;5031492;28;20417;-62
2023/02/10 10:01:16;;;;;;;6.20;1.02;;;;;;;;;;5031014;28;20039;-60
2023/02/10 10:03:48;;;;;;;9.43;1.35;;;;;;;;;;5032149;28;20022;-60
2023/02/10 10:06:30;;;;;;;18.33;1.50;;;;;;;;;;5031355;28;20033;-59
2023/02/10 10:09:08;;;;;;;11.82;0.98;;;;;;;;;;5032967;28;20035;-60
2023/02/10 10:11:44;;;;;;;10.15;2.05;;;;;;;;;;5032676;28;20523;-60
2023/02/10 10:14:35;;;;;;;8.07;1.15;;;;;;;;;;5031884;28;20128;-60
2023/02/10 10:17:19;;;;;;;11.20;1.60;;;;;;;;;;5030410;28;20041;-59
2023/02/10 10:20:03;;;;;;;14.10;2.15;;;;;;;;;;5031811;28;20029;-60
2023/02/10 10:22:43;;;;;;;10.68;0.98;;;;;;;;;;5036101;28;20017;-58
2023/02/10 10:25:15;;;;;;;11.68;1.77;;;;;;;;;;5036142;28;20080;-59
2023/02/10 10:28:00;;;;;;;2.80;0.95;;;;;;;;;;5035910;28;20069;-60
2023/02/10 10:30:46;;;;;;;45.90;3.58;;;;;;;;;;5034566;28;20024;-60
2023/02/10 10:33:14;;;;;;;15.82;2.15;;;;;;;;;;5033373;28;20689;-60
2023/02/10 10:35:42;;;;;;;7.88;1.08;;;;;;;;;;5035604;28;20029;-62
2023/02/10 10:38:11;;;;;;;12.85;1.15;;;;;;;;;;5034056;28;20488;-61
2023/02/10 10:40:37;;;;;;;13.25;1.30;;;;;;;;;;5035503;28;20042;-59
2023/02/10 10:43:03;;;;;;;7.10;0.90;;;;;;;;;;5033435;28;20049;-60
2023/02/10 10:45:28;;;;;;;6.68;0.55;;;;;;;;;;5033605;28;20392;-61
2023/02/10 10:48:08;;;;;;;17.60;1.60;;;;;;;;;;5034499;28;20017;-64
2023/02/10 10:50:34;;;;;;;9.55;0.93;;;;;;;;;;5035582;28;20021;-60
2023/02/10 10:53:01;;;;;;;8.02;0.50;;;;;;;;;;5034408;28;20065;-60
2023/02/10 10:55:37;;;;;;;14.52;1.15;;;;;;;;;;5033620;28;20119;-60
2023/02/10 10:58:07;;;;;;;15.75;2.00;;;;;;;;;;5034683;28;20473;-61
2023/02/10 11:00:33;;;;;;;53.88;3.58;;;;;;;;;;5034927;28;20377;-61
2023/02/10 11:03:03;;;;;;;12.45;0.95;;;;;;;;;;5034794;28;20100;-59
2023/02/10 11:05:30;;;;;;;36.05;2.28;;;;;;;;;;5035339;28;20029;-59
2023/02/10 11:07:57;;;;;;;26.17;2.63;;;;;;;;;;5033521;28;20392;-61
2023/02/10 11:10:45;;;;;;;5.32;0.60;;;;;;;;;;5035514;28;20091;-60
2023/02/10 11:13:20;;;;;;;9.95;1.25;;;;;;;;;;5028346;28;20052;-60
2023/02/10 11:15:46;;;;;;;18.88;2.88;;;;;;;;;;5033690;28;20111;-60
2023/02/10 11:18:21;;;;;;;23.52;3.53;;;;;;;;;;5033774;28;20021;-60
2023/02/10 11:21:03;;;;;;;8.52;1.95;;;;;;;;;;5033337;28;20037;-60
2023/02/10 11:23:29;;;;;;;14.77;1.10;;;;;;;;;;5033585;28;20107;-61
2023/02/10 11:26:03;;;;;;;23.17;2.25;;;;;;;;;;5033146;28;20481;-61
2023/02/10 11:28:29;;;;;;;7.82;1.58;;;;;;;;;;5034599;28;20038;-61
2023/02/10 11:30:57;;;;;;;20.10;1.25;;;;;;;;;;5033636;28;20357;-60
2023/02/10 11:33:24;;;;;;;24.13;2.30;;;;;;;;;;5032930;28;20068;-61
2023/02/10 11:35:52;;;;;;;16.40;1.80;;;;;;;;;;5034552;28;20398;-61
2023/02/10 11:38:20;;;;;;;19.63;1.15;;;;;;;;;;5034174;28;20108;-63
2023/02/10 11:40:48;;;;;;;11.02;0.75;;;;;;;;;;5035647;28;20050;-60
2023/02/10 11:43:14;;;;;;;19.42;2.88;;;;;;;;;;5034347;28;20034;-62
2023/02/10 11:45:50;;;;;;;6.30;1.52;;;;;;;;;;5035606;28;20018;-60
2023/02/10 11:48:20;;;;;;;35.92;4.38;;;;;;;;;;5033823;28;20068;-62
2023/02/10 11:50:46;;;;;;;6.20;1.10;;;;;;;;;;5034471;28;20401;-60
2023/02/10 11:53:28;;;;;;;5.13;0.80;;;;;;;;;;5034073;28;20029;-59
2023/02/10 11:56:12;;;;;;;13.52;0.70;;;;;;;;;;5033282;28;20070;-60
2023/02/10 12:01:31;;;;;;;11.82;1.73;;;;;;;;;;5034637;28;20445;-59
2023/02/10 12:04:00;;;;;;;9.70;0.98;;;;;;;;;;5033277;28;20029;-60
2023/02/10 12:06:35;;;;;;;4.28;0.80;;;;;;;;;;5034772;28;20021;-64
2023/02/10 12:09:04;;;;;;;8.48;0.80;;;;;;;;;;5034742;28;20075;-66
2023/02/10 12:11:30;;;;;;;19.05;0.70;;;;;;;;;;5034418;28;20025;-60
2023/02/10 12:14:14;;;;;;;7.70;1.17;;;;;;;;;;5034404;28;20470;-58
2023/02/10 12:16:42;;;;;;;9.43;0.65;;;;;;;;;;5034640;28;20220;-58
2023/02/10 12:19:17;;;;;;;15.10;0.95;;;;;;;;;;5032655;28;20021;-60
2023/02/10 12:21:42;;;;;;;;;;;;;;;;;;5033555;28;20053;-62
2023/02/10 12:24:14;;;;;;;15.82;1.48;;;;;;;;;;5034139;28;19952;-61
2023/02/10 12:27:02;;;;;;;9.20;1.15;;;;;;;;;;5034432;28;20116;-60
2023/02/10 12:29:27;;;;;;;13.35;0.82;;;;;;;;;;5032459;28;20087;-61
2023/02/10 12:32:12;;;;;;;7.88;0.60;;;;;;;;;;5034645;28;20084;-61
2023/02/10 12:34:52;;;;;;;12.18;1.10;;;;;;;;;;5034459;28;20021;-59
2023/02/10 12:37:25;;;;;;;27.95;2.38;;;;;;;;;;5034066;28;20021;-60
2023/02/10 12:40:09;;;;;;;8.70;0.85;;;;;;;;;;5034235;28;20021;-60
2023/02/10 12:42:44;;;;;;;4.22;0.65;;;;;;;;;;5031498;28;20032;-60
2023/02/10 12:45:28;;;;;;;7.28;1.27;;;;;;;;;;5033293;28;20048;-60
2023/02/10 12:47:59;;;;;;;18.13;1.13;;;;;;;;;;5032454;28;20480;-59
2023/02/10 12:50:37;;;;;;;15.73;1.83;;;;;;;;;;5032107;28;20101;-60
2023/02/10 12:53:02;;;;;;;11.63;1.35;;;;;;;;;;5032155;28;20030;-60
2023/02/10 12:55:34;;;;;;;14.40;0.80;;;;;;;;;;5033712;28;20391;-60
2023/02/10 12:58:06;;;;;;;15.90;1.50;;;;;;;;;;5032704;28;20025;-58
2023/02/10 13:00:38;;;;;;;17.10;1.00;;;;;;;;;;5034007;28;20028;-59
2023/02/10 13:03:11;;;;;;;7.53;1.00;;;;;;;;;;5032982;28;20106;-61
2023/02/10 13:05:39;;;;;;;11.80;0.63;;;;;;;;;;5034705;28;20022;-61
2023/02/10 13:08:10;;;;;;;5.60;0.82;;;;;;;;;;5034155;28;20028;-61
2023/02/10 13:10:40;;;;;;;4.72;0.43;;;;;;;;;;5033628;28;20492;-59
2023/02/10 13:13:24;;;;;;;17.35;0.93;;;;;;;;;;5033302;28;20457;-61
2023/02/10 13:15:52;;;;;;;22.48;1.40;;;;;;;;;;5046705;28;20064;-61
2023/02/10 13:18:19;;;;;;;5.32;1.00;;;;;;;;;;5053600;28;20029;-60
2023/02/10 13:21:03;;;;;;;14.25;1.30;;;;;;;;;;5053311;28;20039;-61
2023/02/10 13:23:32;;;;;;;14.90;1.40;;;;;;;;;;5035011;28;20079;-61
2023/02/10 13:26:34;;;;;;;15.57;1.27;;;;;;;;;;5053018;28;20469;-60
2023/02/10 13:29:18;;;;;;;16.23;2.00;;;;;;;;;;4935964;29;20031;-61
2023/02/10 13:31:49;;;;;;;9.88;1.30;;;;;;;;;;5044009;28;20029;-60
2023/02/10 13:34:32;;;;;;;16.40;1.70;;;;;;;;;;5034589;28;20100;-60
2023/02/10 13:37:08;;;;;;;25.75;3.80;;;;;;;;;;5035004;28;20025;-59
2023/02/10 13:39:34;;;;;;;8.82;1.30;;;;;;;;;;5052600;28;20021;-61
2023/02/10 13:42:22;;;;;;;12.07;1.50;;;;;;;;;;5052521;28;20104;-61
2023/02/10 13:44:56;;;;;;;15.02;1.25;;;;;;;;;;5052547;28;20036;-60
2023/02/10 13:47:27;;;;;;;6.75;0.85;;;;;;;;;;5035306;28;20021;-62
2023/02/10 13:50:06;;;;;;;12.02;1.05;;;;;;;;;;5035718;28;20120;-61
2023/02/10 13:52:34;;;;;;;9.40;1.48;;;;;;;;;;5053363;28;20017;-60
2023/02/10 13:55:22;;;;;;;7.15;0.70;;;;;;;;;;5033952;28;20059;-59
2023/02/10 13:57:55;;;;;;;13.07;0.80;;;;;;;;;;5052042;28;20032;-62
2023/02/10 14:00:22;;;;;;;11.40;1.25;;;;;;;;;;5052205;28;20036;-59
2023/02/10 14:03:18;;;;;;;5.60;1.02;;;;;;;;;;5053071;28;20100;-62
2023/02/10 14:05:51;;;;;;;33.33;2.97;;;;;;;;;;5036098;28;20128;-60
2023/02/10 14:08:32;;;;;;;13.45;2.20;;;;;;;;;;5034661;28;20025;-61
2023/02/10 14:10:59;;;;;;;29.38;2.65;;;;;;;;;;5052325;28;20039;-62
2023/02/10 14:13:26;;;;;;;13.63;0.93;;;;;;;;;;5034598;28;20083;-61
2023/02/10 14:16:00;;;;;;;16.83;2.60;;;;;;;;;;5052482;28;20067;-60
2023/02/10 14:18:29;;;;;;;13.88;1.63;;;;;;;;;;5035402;28;20075;-60
2023/02/10 14:21:06;;;;;;;7.43;1.30;;;;;;;;;;5034756;28;20017;-61
2023/02/10 14:23:35;;;;;;;17.30;1.30;;;;;;;;;;5052944;28;20071;-61
2023/02/10 14:26:04;;;;;;;16.40;1.30;;;;;;;;;;5053214;28;20456;-63
2023/02/10 14:28:37;;;;;;;6.15;0.98;;;;;;;;;;5053000;28;20045;-61
2023/02/10 14:31:13;;;;;;;9.07;1.52;;;;;;;;;;5052495;28;20027;-62
2023/02/10 14:33:38;;;;;;;13.90;1.40;;;;;;;;;;5052428;28;20017;-60
2023/02/10 14:36:07;;;;;;;25.92;2.38;;;;;;;;;;5052514;28;20370;-61
2023/02/10 14:38:34;;;;;;;10.30;1.38;;;;;;;;;;5051556;28;20020;-64
2023/02/10 14:41:00;;;;;;;20.73;2.95;;;;;;;;;;5033458;28;20060;-59
2023/02/10 14:43:27;;;;;;;9.85;1.08;;;;;;;;;;5053199;28;20033;-61
2023/02/10 14:45:54;;;;;;;10.82;1.52;;;;;;;;;;5035087;28;20025;-61
2023/02/10 14:48:22;;;;;;;15.98;1.20;;;;;;;;;;5052237;28;20603;-60
2023/02/10 14:51:08;;;;;;;7.00;0.82;;;;;;;;;;5052299;28;20120;-60
2023/02/10 14:53:36;;;;;;;8.52;1.23;;;;;;;;;;5033895;28;20480;-62